Time;durP1;ratioP1;P1;durP2;ratioP2;P2;SDS_P1;SDS_P2;PMS_P1;PMS_P2;Temp;Humidity;BMP_temperature;BMP_pressure;BME280_temperature;BME280_humidity;BME280_pressure;Samples;Min_cycle;Max_cycle;Signal;HPM_P1;HPM_P2
2023/04/16 00:00:55;;;;;;;9.33;5.27;;;11.20;99.90;;;;;;5055549;28;20456;-55
2023/04/16 00:03:22;;;;;;;9.63;5.23;;;11.20;99.90;;;;;;5055580;28;20454;-56
2023/04/16 00:05:49;;;;;;;9.30;5.20;;;11.20;99.90;;;;;;5055629;28;20452;-56
2023/04/16 00:08:16;;;;;;;8.70;5.60;;;11.20;99.90;;;;;;5055480;28;20450;-56
2023/04/16 00:10:44;;;;;;;10.10;5.73;;;11.20;99.90;;;;;;5055446;28;20828;-56
2023/04/16 00:13:10;;;;;;;13.03;6.30;;;11.20;99.90;;;;;;5055041;28;20882;-56
2023/04/16 00:15:37;;;;;;;9.90;5.57;;;11.10;99.90;;;;;;5055269;28;20489;-56
2023/04/16 00:18:04;;;;;;;8.37;5.40;;;11.10;99.90;;;;;;5055313;28;20454;-56
2023/04/16 00:20:31;;;;;;;7.17;5.80;;;11.10;99.90;;;;;;5054925;28;20453;-56
2023/04/16 00:22:58;;;;;;;7.13;5.67;;;11.10;99.90;;;;;;5054859;28;20943;-56
2023/04/16 00:25:24;;;;;;;10.53;5.40;;;11.10;99.90;;;;;;5055048;28;20477;-56
2023/04/16 00:27:52;;;;;;;7.43;4.80;;;11.10;99.90;;;;;;5055095;28;20454;-56
2023/04/16 00:30:19;;;;;;;11.20;4.97;;;11.10;99.90;;;;;;5055027;28;20449;-56
2023/04/16 00:32:46;;;;;;;11.83;5.70;;;11.10;99.90;;;;;;5055229;28;20452;-56
2023/04/16 00:35:12;;;;;;;7.40;4.87;;;11.00;99.90;;;;;;5054844;28;20520;-56
2023/04/16 00:37:39;;;;;;;5.73;4.90;;;11.00;99.90;;;;;;5055047;28;20446;-56
2023/04/16 00:40:07;;;;;;;12.60;7.00;;;11.00;99.90;;;;;;5055398;28;20453;-56
2023/04/16 00:42:35;;;;;;;7.40;5.97;;;11.00;99.90;;;;;;5054602;28;20468;-56
2023/04/16 00:45:04;;;;;;;9.03;5.70;;;10.90;99.90;;;;;;5054776;28;20516;-56
2023/04/16 00:47:31;;;;;;;8.00;5.30;;;10.90;99.90;;;;;;5054767;28;20451;-56
2023/04/16 00:49:58;;;;;;;9.10;5.77;;;10.90;99.90;;;;;;5054118;28;20472;-56
2023/04/16 00:52:25;;;;;;;9.40;5.03;;;10.90;99.90;;;;;;5054633;28;20454;-56
2023/04/16 00:54:53;;;;;;;11.10;6.80;;;10.90;99.90;;;;;;5054583;28;20534;-56
2023/04/16 00:57:22;;;;;;;14.40;6.53;;;10.90;99.90;;;;;;5054577;28;20457;-56
2023/04/16 00:59:49;;;;;;;12.20;6.23;;;10.90;99.90;;;;;;5054252;28;20990;-56
2023/04/16 01:02:17;;;;;;;12.13;6.83;;;11.00;99.90;;;;;;5054495;28;20862;-56
2023/04/16 01:04:44;;;;;;;12.33;6.13;;;10.90;99.90;;;;;;5054310;28;20461;-56
2023/04/16 01:07:11;;;;;;;10.00;6.80;;;10.90;99.90;;;;;;5054342;28;20446;-56
2023/04/16 01:09:37;;;;;;;11.60;7.20;;;10.90;99.90;;;;;;5054241;28;20453;-56
2023/04/16 01:12:04;;;;;;;9.80;6.20;;;11.00;99.90;;;;;;5054189;28;20452;-56
2023/04/16 01:14:35;;;;;;;8.43;5.43;;;11.00;99.90;;;;;;5054041;28;20482;-56
2023/04/16 01:17:01;;;;;;;9.93;5.60;;;11.00;99.90;;;;;;5055026;28;20509;-56
2023/04/16 01:19:30;;;;;;;12.80;6.37;;;11.00;99.90;;;;;;5053801;28;20792;-56
2023/04/16 01:21:58;;;;;;;8.00;5.47;;;10.90;99.90;;;;;;5054006;28;20507;-56
2023/04/16 01:24:24;;;;;;;9.87;6.40;;;11.00;99.90;;;;;;5053921;28;20469;-56
2023/04/16 01:26:51;;;;;;;8.07;5.90;;;10.90;99.90;;;;;;5053649;28;20954;-56
2023/04/16 01:29:18;;;;;;;12.67;7.27;;;10.90;99.90;;;;;;5053595;28;20864;-56
2023/04/16 01:31:45;;;;;;;7.57;6.50;;;10.80;99.90;;;;;;5053877;28;20449;-56
2023/04/16 01:34:12;;;;;;;14.80;6.50;;;10.80;99.90;;;;;;5053631;28;20564;-55
2023/04/16 01:36:38;;;;;;;14.63;6.90;;;10.80;99.90;;;;;;5053782;28;20450;-56
2023/04/16 01:39:10;;;;;;;11.67;6.60;;;10.80;99.90;;;;;;5053887;28;20458;-56
2023/04/16 01:41:37;;;;;;;11.27;6.80;;;10.80;99.90;;;;;;5053450;28;20894;-56
2023/04/16 01:44:04;;;;;;;9.60;7.67;;;10.90;99.90;;;;;;5053644;28;20466;-57
2023/04/16 01:46:33;;;;;;;10.60;7.10;;;10.90;99.90;;;;;;5053661;28;21034;-56
2023/04/16 01:49:00;;;;;;;9.50;6.70;;;10.90;99.90;;;;;;5053679;28;20456;-56
2023/04/16 01:51:27;;;;;;;11.77;7.70;;;10.90;99.90;;;;;;5053683;28;20449;-56
2023/04/16 01:53:54;;;;;;;14.50;7.43;;;10.90;99.90;;;;;;5053239;28;20827;-56
2023/04/16 01:56:22;;;;;;;8.90;7.40;;;10.90;99.90;;;;;;5053471;28;20485;-56
2023/04/16 01:58:49;;;;;;;12.97;8.13;;;10.90;99.90;;;;;;5053555;28;20494;-55
2023/04/16 02:01:15;;;;;;;10.87;7.90;;;10.80;99.90;;;;;;5053215;28;20542;-56
2023/04/16 02:03:42;;;;;;;10.57;8.20;;;10.80;99.90;;;;;;5052655;28;20476;-56
2023/04/16 02:06:09;;;;;;;13.27;8.03;;;10.80;99.90;;;;;;5053439;28;20445;-56
2023/04/16 02:08:36;;;;;;;8.30;7.17;;;10.80;99.90;;;;;;5053368;28;20453;-56
2023/04/16 02:11:02;;;;;;;10.00;7.50;;;10.80;99.90;;;;;;5053324;28;20446;-56
2023/04/16 02:13:30;;;;;;;13.73;8.57;;;10.80;99.90;;;;;;5053240;28;20450;-56
2023/04/16 02:15:57;;;;;;;10.90;7.97;;;10.80;99.90;;;;;;5053189;28;20481;-56
2023/04/16 02:18:24;;;;;;;14.43;9.80;;;10.80;99.90;;;;;;5053004;28;20951;-56
2023/04/16 02:20:50;;;;;;;12.30;8.23;;;10.70;99.90;;;;;;5053425;28;20442;-56
2023/04/16 02:23:17;;;;;;;11.97;8.03;;;10.70;99.90;;;;;;5052836;28;20813;-56
2023/04/16 02:25:45;;;;;;;11.30;8.83;;;10.80;99.90;;;;;;5053104;28;20472;-56
2023/04/16 02:28:13;;;;;;;12.40;9.50;;;10.80;99.90;;;;;;5053159;28;20449;-56
2023/04/16 02:30:42;;;;;;;11.07;7.90;;;10.80;99.90;;;;;;5053097;28;20449;-56
2023/04/16 02:33:10;;;;;;;11.93;8.30;;;10.80;99.90;;;;;;5053165;28;20445;-56
2023/04/16 02:35:37;;;;;;;13.90;9.77;;;10.80;99.90;;;;;;5052919;28;20485;-56
2023/04/16 02:38:04;;;;;;;16.83;8.90;;;10.80;99.90;;;;;;5053882;28;20449;-56
2023/04/16 02:40:32;;;;;;;14.30;9.00;;;10.80;99.90;;;;;;5053026;28;20450;-56
2023/04/16 02:42:59;;;;;;;14.23;8.80;;;10.80;99.90;;;;;;5052613;28;20876;-55
2023/04/16 02:45:26;;;;;;;14.47;8.73;;;10.80;99.90;;;;;;5052936;28;20472;-56
2023/04/16 02:47:54;;;;;;;15.60;9.40;;;10.80;99.90;;;;;;5053046;28;20795;-56
2023/04/16 02:50:20;;;;;;;17.13;9.30;;;10.80;99.90;;;;;;5052997;28;20450;-56
2023/04/16 02:52:47;;;;;;;22.87;10.23;;;10.80;99.90;;;;;;5052642;28;20950;-56
2023/04/16 02:55:14;;;;;;;16.70;10.00;;;10.80;99.90;;;;;;5052830;28;20489;-56
2023/04/16 02:57:41;;;;;;;18.80;9.97;;;10.80;99.90;;;;;;5052821;28;20943;-56
2023/04/16 03:00:09;;;;;;;15.90;11.33;;;10.90;99.90;;;;;;5052674;28;20936;-56
2023/04/16 03:02:35;;;;;;;15.33;9.83;;;10.90;99.90;;;;;;5052805;28;20828;-56
2023/04/16 03:05:04;;;;;;;13.47;9.60;;;10.90;99.90;;;;;;5052694;28;20539;-56
2023/04/16 03:07:34;;;;;;;18.67;10.90;;;10.90;99.90;;;;;;5052828;28;20445;-56
2023/04/16 03:10:00;;;;;;;14.37;9.70;;;10.90;99.90;;;;;;5052498;28;20834;-56
2023/04/16 03:12:27;;;;;;;18.73;10.27;;;10.80;99.90;;;;;;5052750;28;20464;-56
2023/04/16 03:14:54;;;;;;;17.97;12.13;;;10.80;99.90;;;;;;5055640;28;20491;-56
2023/04/16 03:17:21;;;;;;;16.53;10.50;;;10.80;99.90;;;;;;5056640;28;20453;-56
2023/04/16 03:19:49;;;;;;;16.70;11.07;;;10.80;99.90;;;;;;5056103;28;20950;-56
2023/04/16 03:22:17;;;;;;;17.97;10.73;;;10.80;99.90;;;;;;5056399;28;20453;-56
2023/04/16 03:24:44;;;;;;;18.43;11.57;;;10.80;99.90;;;;;;5056370;28;20470;-56
2023/04/16 03:27:11;;;;;;;19.70;11.03;;;10.80;99.90;;;;;;5056281;28;20460;-56
2023/04/16 03:29:38;;;;;;;17.57;11.20;;;10.90;99.90;;;;;;5056180;28;20954;-56
2023/04/16 03:32:04;;;;;;;20.87;11.50;;;10.90;99.90;;;;;;5055840;28;20959;-56
2023/04/16 03:34:31;;;;;;;18.57;11.33;;;10.90;99.90;;;;;;5056201;28;20488;-56
2023/04/16 03:36:58;;;;;;;15.00;10.13;;;10.90;99.90;;;;;;5056002;28;20482;-56
2023/04/16 03:39:26;;;;;;;17.20;12.13;;;10.90;99.90;;;;;;5055996;28;20499;-56
2023/04/16 03:41:53;;;;;;;15.60;12.50;;;10.90;99.90;;;;;;5055913;28;20457;-56
2023/04/16 03:44:19;;;;;;;21.23;12.30;;;10.90;99.90;;;;;;5055907;28;20834;-56
2023/04/16 03:46:46;;;;;;;18.80;12.33;;;10.90;99.90;;;;;;5055690;28;20545;-56
2023/04/16 03:49:13;;;;;;;18.00;11.80;;;10.80;99.90;;;;;;5055921;28;20453;-56
2023/04/16 03:51:39;;;;;;;20.30;11.83;;;10.90;99.90;;;;;;5055790;28;20445;-55
2023/04/16 03:54:06;;;;;;;18.10;11.80;;;10.90;99.90;;;;;;5055698;28;20496;-56
2023/04/16 03:56:34;;;;;;;23.23;12.87;;;10.90;99.90;;;;;;5055601;28;20504;-56
2023/04/16 03:59:01;;;;;;;18.73;11.37;;;10.90;99.90;;;;;;5055619;28;20503;-56
2023/04/16 04:01:27;;;;;;;15.63;12.10;;;10.80;99.90;;;;;;5055599;28;20460;-56
2023/04/16 04:03:54;;;;;;;17.40;12.27;;;10.80;99.90;;;;;;5055473;28;20473;-56
2023/04/16 04:06:21;;;;;;;19.03;12.80;;;10.80;99.90;;;;;;5055168;28;20821;-56
2023/04/16 04:08:47;;;;;;;22.60;13.77;;;10.80;99.90;;;;;;5055486;28;20500;-56
2023/04/16 04:11:14;;;;;;;15.57;11.03;;;10.70;99.90;;;;;;5055440;28;20449;-56
2023/04/16 04:13:42;;;;;;;24.97;13.33;;;10.70;99.90;;;;;;5054960;28;20878;-56
2023/04/16 04:16:09;;;;;;;16.63;12.40;;;10.70;99.90;;;;;;5055252;28;20486;-56
2023/04/16 04:18:35;;;;;;;20.33;12.83;;;10.70;99.90;;;;;;5055323;28;20450;-56
2023/04/16 04:21:05;;;;;;;24.07;14.07;;;10.80;99.90;;;;;;5055250;28;20460;-56
2023/04/16 04:23:32;;;;;;;23.87;13.80;;;10.80;99.90;;;;;;5055927;28;20461;-56
2023/04/16 04:26:02;;;;;;;18.80;13.40;;;10.80;99.90;;;;;;5054167;28;20499;-56
2023/04/16 04:28:29;;;;;;;18.27;13.33;;;10.80;99.90;;;;;;5055091;28;20477;-56
2023/04/16 04:30:57;;;;;;;20.10;12.53;;;10.80;99.90;;;;;;5055018;28;20445;-56
2023/04/16 04:33:24;;;;;;;19.17;12.30;;;10.80;99.90;;;;;;5054977;28;20504;-56
2023/04/16 04:35:51;;;;;;;16.77;12.47;;;10.80;99.90;;;;;;5054951;28;20525;-56
2023/04/16 04:38:18;;;;;;;18.60;12.83;;;10.90;99.90;;;;;;5054939;28;20452;-56
2023/04/16 04:40:45;;;;;;;17.87;13.50;;;10.90;99.90;;;;;;5054503;28;20943;-56
2023/04/16 04:43:12;;;;;;;19.80;13.97;;;10.90;99.90;;;;;;5054760;28;20453;-56
2023/04/16 04:45:39;;;;;;;16.70;13.20;;;10.90;99.90;;;;;;5054765;28;20473;-56
2023/04/16 04:48:07;;;;;;;19.27;13.03;;;10.90;99.90;;;;;;5054403;28;20947;-56
2023/04/16 04:50:33;;;;;;;30.83;15.20;;;10.90;99.90;;;;;;5054669;28;20445;-56
2023/04/16 04:53:00;;;;;;;22.50;15.90;;;10.90;99.90;;;;;;5054463;28;20966;-56
2023/04/16 04:55:27;;;;;;;21.43;14.60;;;10.80;99.90;;;;;;5054182;28;20866;-56
2023/04/16 04:57:53;;;;;;;22.73;15.33;;;10.90;99.90;;;;;;5054670;28;20540;-56
2023/04/16 05:00:20;;;;;;;18.90;13.60;;;10.80;99.90;;;;;;5054469;28;20445;-56
2023/04/16 05:02:47;;;;;;;25.13;14.07;;;10.80;99.90;;;;;;5054514;28;20454;-56
2023/04/16 05:05:15;;;;;;;19.10;14.10;;;10.80;99.90;;;;;;5054434;28;20465;-56
2023/04/16 05:07:42;;;;;;;22.33;14.17;;;10.80;99.90;;;;;;5054421;28;20441;-56
2023/04/16 05:10:09;;;;;;;19.83;14.70;;;10.80;99.90;;;;;;5054674;28;20442;-56
2023/04/16 05:12:36;;;;;;;21.80;14.23;;;10.80;99.90;;;;;;5054333;28;20484;-56
2023/04/16 05:15:03;;;;;;;26.10;14.77;;;10.80;99.90;;;;;;5054224;28;20873;-56
2023/04/16 05:17:30;;;;;;;22.20;15.73;;;10.90;99.90;;;;;;5054297;28;20496;-56
2023/04/16 05:19:56;;;;;;;24.37;15.33;;;10.90;99.90;;;;;;5054455;28;20454;-56
2023/04/16 05:22:24;;;;;;;28.37;14.87;;;10.90;99.90;;;;;;5054175;28;20452;-56
2023/04/16 05:24:51;;;;;;;29.53;16.67;;;10.90;99.90;;;;;;5055218;28;20473;-56
2023/04/16 05:27:18;;;;;;;21.13;14.20;;;10.80;99.90;;;;;;5054275;28;20457;-56
2023/04/16 05:29:44;;;;;;;24.33;15.30;;;10.90;99.90;;;;;;5054049;28;20441;-56
2023/04/16 05:32:11;;;;;;;25.43;15.93;;;10.90;99.90;;;;;;5053861;28;20450;-56
2023/04/16 05:34:38;;;;;;;30.20;17.40;;;10.90;99.90;;;;;;5054162;28;20477;-56
2023/04/16 05:37:05;;;;;;;28.50;19.70;;;10.90;99.90;;;;;;5053595;28;20503;-56
2023/04/16 05:39:33;;;;;;;23.40;16.67;;;10.90;99.90;;;;;;5053904;28;20461;-56
2023/04/16 05:41:59;;;;;;;29.37;17.53;;;10.90;99.90;;;;;;5053372;28;20860;-56
2023/04/16 05:44:26;;;;;;;23.90;16.90;;;10.90;99.90;;;;;;5053656;28;20465;-56
2023/04/16 05:46:53;;;;;;;24.37;15.37;;;11.00;99.90;;;;;;5053677;28;20441;-56
2023/04/16 05:49:20;;;;;;;22.03;16.00;;;11.00;99.90;;;;;;5053632;28;20868;-56
2023/04/16 05:51:47;;;;;;;20.20;15.97;;;11.10;99.90;;;;;;5053721;28;20552;-56
2023/04/16 05:54:14;;;;;;;21.67;14.00;;;11.10;99.90;;;;;;5053542;28;20473;-56
2023/04/16 05:56:42;;;;;;;20.40;14.80;;;11.10;99.90;;;;;;5053477;28;20485;-56
2023/04/16 05:59:09;;;;;;;18.87;15.47;;;11.00;99.90;;;;;;5054344;28;20453;-56
2023/04/16 06:01:36;;;;;;;21.73;15.40;;;11.10;99.90;;;;;;5053449;28;20456;-56
2023/04/16 06:04:02;;;;;;;19.70;13.90;;;11.10;99.90;;;;;;5053440;28;20468;-55
2023/04/16 06:06:29;;;;;;;22.93;16.10;;;11.20;99.90;;;;;;5053378;28;20453;-56
2023/04/16 06:08:56;;;;;;;23.37;15.60;;;11.20;99.90;;;;;;5053397;28;20450;-56
2023/04/16 06:11:23;;;;;;;24.60;14.73;;;11.20;99.90;;;;;;5053248;28;20476;-56
2023/04/16 06:13:51;;;;;;;20.90;15.17;;;11.20;99.90;;;;;;5053325;28;20469;-56
2023/04/16 06:16:17;;;;;;;22.50;14.83;;;11.20;99.90;;;;;;5053228;28;20477;-56
2023/04/16 06:18:44;;;;;;;24.03;19.97;;;11.20;99.90;;;;;;5053249;28;20445;-56
2023/04/16 06:21:11;;;;;;;31.93;28.40;;;11.10;99.90;;;;;;5053202;28;20449;-56
2023/04/16 06:23:38;;;;;;;26.27;19.60;;;11.20;99.90;;;;;;5052803;28;20951;-56
2023/04/16 06:26:05;;;;;;;24.00;15.70;;;11.20;99.90;;;;;;5053171;28;20457;-56
2023/04/16 06:28:31;;;;;;;26.87;16.83;;;11.30;99.90;;;;;;5053245;28;20450;-56
2023/04/16 06:30:59;;;;;;;24.00;16.77;;;11.20;99.90;;;;;;5052840;28;20872;-56
2023/04/16 06:33:26;;;;;;;23.23;16.70;;;11.20;99.90;;;;;;5052710;28;21041;-56
2023/04/16 06:35:53;;;;;;;25.80;16.77;;;11.20;99.90;;;;;;5053120;28;20485;-56
2023/04/16 06:38:20;;;;;;;24.40;17.23;;;11.20;99.90;;;;;;5053072;28;20449;-56
2023/04/16 06:40:48;;;;;;;25.07;16.60;;;11.20;99.90;;;;;;5053040;28;20456;-56
2023/04/16 06:43:16;;;;;;;24.27;15.87;;;11.10;99.90;;;;;;5053085;28;20853;-56
2023/04/16 06:45:43;;;;;;;28.57;17.27;;;11.10;99.90;;;;;;5052638;28;20473;-56
2023/04/16 06:48:11;;;;;;;26.47;18.23;;;11.10;99.90;;;;;;5053103;28;20451;-56
2023/04/16 06:50:38;;;;;;;22.70;17.00;;;11.20;99.90;;;;;;5056941;28;20452;-56
2023/04/16 06:53:04;;;;;;;27.50;18.37;;;11.10;99.90;;;;;;5056949;28;20448;-56
2023/04/16 06:55:31;;;;;;;23.60;17.20;;;11.10;99.90;;;;;;5056798;28;20461;-56
2023/04/16 06:57:58;;;;;;;28.17;17.07;;;11.20;99.90;;;;;;5056531;28;20994;-56
2023/04/16 07:00:25;;;;;;;25.10;15.40;;;11.20;99.90;;;;;;5056788;28;20524;-56
2023/04/16 07:02:51;;;;;;;24.97;16.17;;;11.20;99.90;;;;;;5056860;28;20454;-56
2023/04/16 07:05:19;;;;;;;29.37;16.23;;;11.30;99.90;;;;;;5056329;28;20983;-56
2023/04/16 07:07:46;;;;;;;22.47;16.00;;;11.20;99.90;;;;;;5056647;28;20452;-56
2023/04/16 07:10:13;;;;;;;22.27;14.60;;;11.20;99.90;;;;;;5056641;28;20457;-56
2023/04/16 07:12:39;;;;;;;24.77;16.87;;;11.30;99.90;;;;;;5056578;28;20445;-56
2023/04/16 07:15:08;;;;;;;22.47;15.47;;;11.30;99.90;;;;;;5056625;28;20465;-56
2023/04/16 07:17:34;;;;;;;21.47;15.40;;;11.30;99.90;;;;;;5056397;28;20488;-56
2023/04/16 07:20:01;;;;;;;24.50;15.43;;;11.40;99.90;;;;;;5056384;28;20453;-56
2023/04/16 07:22:29;;;;;;;24.03;14.87;;;11.40;99.90;;;;;;5056906;28;20450;-56
2023/04/16 07:24:56;;;;;;;17.87;13.37;;;11.40;99.90;;;;;;5056761;28;20473;-57
2023/04/16 07:27:22;;;;;;;18.43;13.83;;;11.40;99.90;;;;;;5056602;28;20453;-56
2023/04/16 07:29:49;;;;;;;18.93;14.00;;;11.50;99.90;;;;;;5056609;28;20503;-56
2023/04/16 07:32:16;;;;;;;21.47;15.07;;;11.50;99.90;;;;;;5056026;28;20449;-56
2023/04/16 07:34:43;;;;;;;21.40;14.70;;;11.50;99.90;;;;;;5056160;28;20470;-56
2023/04/16 07:37:10;;;;;;;21.00;15.00;;;11.50;99.90;;;;;;5056188;28;20477;-56
2023/04/16 07:39:38;;;;;;;19.43;14.10;;;11.50;99.90;;;;;;5056303;28;20458;-56
2023/04/16 07:42:05;;;;;;;20.43;12.40;;;11.50;99.90;;;;;;5055834;28;20465;-57
2023/04/16 07:44:32;;;;;;;23.10;13.80;;;11.60;99.90;;;;;;5056063;28;20477;-57
2023/04/16 07:46:58;;;;;;;22.13;14.23;;;11.60;99.90;;;;;;5055912;28;20449;-56
2023/04/16 07:49:25;;;;;;;18.60;14.57;;;11.60;99.90;;;;;;5055795;28;20453;-56
2023/04/16 07:51:52;;;;;;;25.10;16.47;;;11.70;99.90;;;;;;5055486;28;20970;-56
2023/04/16 07:54:18;;;;;;;22.73;15.60;;;11.70;99.90;;;;;;5055935;28;20470;-57
2023/04/16 07:56:47;;;;;;;27.83;17.13;;;11.80;99.90;;;;;;5055762;28;20488;-57
2023/04/16 07:59:13;;;;;;;23.00;15.97;;;11.80;99.90;;;;;;5055799;28;20453;-56
2023/04/16 08:01:40;;;;;;;24.83;15.90;;;11.90;99.90;;;;;;5055995;28;20446;-57
2023/04/16 08:04:07;;;;;;;23.43;15.87;;;11.90;99.90;;;;;;5056117;28;20515;-57
2023/04/16 08:06:33;;;;;;;27.20;17.93;;;12.00;99.90;;;;;;5055887;28;20437;-56
2023/04/16 08:09:00;;;;;;;26.30;18.23;;;12.10;99.90;;;;;;5055651;28;20448;-56
2023/04/16 08:11:27;;;;;;;23.13;17.50;;;12.20;99.90;;;;;;5055589;28;20452;-56
2023/04/16 08:13:55;;;;;;;18.40;15.60;;;12.20;99.90;;;;;;5055183;28;20999;-56
2023/04/16 08:16:22;;;;;;;23.30;17.57;;;12.20;99.90;;;;;;5055554;28;20453;-56
2023/04/16 08:18:48;;;;;;;28.70;18.70;;;12.30;99.90;;;;;;5055734;28;20453;-56
2023/04/16 08:21:15;;;;;;;27.07;18.27;;;12.30;99.90;;;;;;5055671;28;20445;-57
2023/04/16 08:23:42;;;;;;;24.23;17.10;;;12.30;99.90;;;;;;5055955;28;20931;-56
2023/04/16 08:26:08;;;;;;;23.43;16.27;;;12.30;99.90;;;;;;5055181;28;20460;-56
2023/04/16 08:28:35;;;;;;;27.27;18.27;;;12.30;99.90;;;;;;5055467;28;20460;-56
2023/04/16 08:31:03;;;;;;;27.10;18.43;;;12.30;99.90;;;;;;5055400;28;20461;-56
2023/04/16 08:33:30;;;;;;;24.57;17.80;;;12.30;99.90;;;;;;5055069;28;20457;-56
2023/04/16 08:35:56;;;;;;;28.57;19.50;;;12.20;99.90;;;;;;5055208;28;20449;-56
2023/04/16 08:38:23;;;;;;;27.77;18.40;;;12.20;99.90;;;;;;5054701;28;21025;-56
2023/04/16 08:40:50;;;;;;;31.17;21.13;;;12.20;99.90;;;;;;5054520;28;20974;-56
2023/04/16 08:43:18;;;;;;;24.73;16.90;;;12.10;99.90;;;;;;5054584;28;20503;-56
2023/04/16 08:45:47;;;;;;;32.27;19.10;;;12.10;99.90;;;;;;5054743;28;20473;-56
2023/04/16 08:48:15;;;;;;;30.03;19.20;;;12.10;99.90;;;;;;5055047;28;20511;-56
2023/04/16 08:50:44;;;;;;;32.90;20.80;;;12.10;99.90;;;;;;5054706;28;20453;-56
2023/04/16 08:53:18;;;;;;;26.33;19.93;;;12.10;99.90;;;;;;5054743;28;20457;-56
2023/04/16 08:55:48;;;;;;;31.47;20.70;;;12.10;99.90;;;;;;5054868;28;20506;-56
2023/04/16 08:58:18;;;;;;;24.70;18.80;;;12.20;99.90;;;;;;5054662;28;20468;-56
2023/04/16 09:00:45;;;;;;;31.00;20.80;;;12.30;99.90;;;;;;5054757;28;20441;-56
2023/04/16 09:03:13;;;;;;;24.97;18.90;;;12.50;99.90;;;;;;5054525;28;20478;-56
2023/04/16 09:05:42;;;;;;;27.57;19.70;;;12.60;99.90;;;;;;5054480;28;20833;-57
2023/04/16 09:08:09;;;;;;;27.90;19.90;;;12.70;99.90;;;;;;5054533;28;20445;-56
2023/04/16 09:10:36;;;;;;;26.63;19.40;;;12.80;99.90;;;;;;5054138;28;20981;-56
2023/04/16 09:13:02;;;;;;;28.43;20.03;;;12.90;99.90;;;;;;5053804;28;20453;-56
2023/04/16 09:15:29;;;;;;;31.33;20.70;;;13.00;99.90;;;;;;5054264;28;20461;-56
2023/04/16 09:17:56;;;;;;;28.13;19.50;;;13.10;99.90;;;;;;5054137;28;20477;-56
2023/04/16 09:20:23;;;;;;;30.90;19.47;;;13.10;99.90;;;;;;5054092;28;20454;-57
2023/04/16 09:22:51;;;;;;;27.87;20.23;;;13.20;99.90;;;;;;5054026;28;20442;-56
2023/04/16 09:25:21;;;;;;;27.40;20.17;;;13.20;99.90;;;;;;5053928;28;20474;-56
2023/04/16 09:27:50;;;;;;;27.70;18.67;;;13.30;99.90;;;;;;5054051;28;20857;-56
2023/04/16 09:30:22;;;;;;;27.10;19.43;;;13.30;99.90;;;;;;5053660;28;20944;-56
2023/04/16 09:32:50;;;;;;;27.53;20.17;;;13.20;99.90;;;;;;5053942;28;20445;-56
2023/04/16 09:35:18;;;;;;;26.27;19.70;;;13.30;99.90;;;;;;5053698;28;20492;-56
2023/04/16 09:37:54;;;;;;;25.87;18.17;;;13.30;99.90;;;;;;5053877;28;20484;-56
2023/04/16 09:40:26;;;;;;;29.10;22.23;;;13.30;99.90;;;;;;5053724;28;20795;-56
2023/04/16 09:42:57;;;;;;;27.50;20.03;;;13.30;99.90;;;;;;5053551;28;20485;-56
2023/04/16 09:45:24;;;;;;;25.20;21.20;;;13.30;99.90;;;;;;5053608;28;20462;-56
2023/04/16 09:47:50;;;;;;;27.70;19.17;;;13.40;99.90;;;;;;5053574;28;20484;-56
2023/04/16 09:50:18;;;;;;;32.57;21.87;;;13.40;99.90;;;;;;5053674;28;20453;-56
2023/04/16 09:52:48;;;;;;;30.67;22.67;;;13.60;99.90;;;;;;5053555;28;20458;-56
2023/04/16 09:55:15;;;;;;;28.33;20.20;;;13.90;99.90;;;;;;5053362;28;20481;-56
2023/04/16 09:57:43;;;;;;;29.97;20.97;;;14.20;99.60;;;;;;5053557;28;20524;-57
2023/04/16 10:00:11;;;;;;;24.63;20.53;;;14.40;98.80;;;;;;5053473;28;20457;-56
2023/04/16 10:02:41;;;;;;;21.67;19.40;;;14.60;97.90;;;;;;5053338;28;20445;-56
2023/04/16 10:05:08;;;;;;;26.17;20.53;;;14.80;97.30;;;;;;5053563;28;20508;-56
2023/04/16 10:07:36;;;;;;;28.90;20.07;;;14.90;96.80;;;;;;5053046;28;20949;-57
2023/04/16 10:10:04;;;;;;;23.07;18.83;;;15.00;96.00;;;;;;5053337;28;20450;-57
2023/04/16 10:12:32;;;;;;;30.10;19.83;;;15.20;95.60;;;;;;5053332;28;20454;-57
2023/04/16 10:15:00;;;;;;;23.73;18.20;;;15.50;95.30;;;;;;5053233;28;20580;-57
2023/04/16 10:17:28;;;;;;;25.20;19.80;;;15.80;95.20;;;;;;5053174;28;20481;-57
2023/04/16 10:19:55;;;;;;;22.50;20.10;;;16.10;94.70;;;;;;5053248;28;20458;-57
2023/04/16 10:22:22;;;;;;;23.47;18.40;;;16.40;93.50;;;;;;5052703;28;20446;-57
2023/04/16 10:24:50;;;;;;;22.97;19.97;;;16.60;92.70;;;;;;5052585;28;20531;-56
2023/04/16 10:27:18;;;;;;;23.97;19.83;;;16.80;91.70;;;;;;5053198;28;20445;-56
2023/04/16 10:29:46;;;;;;;24.73;20.60;;;16.90;90.80;;;;;;5053155;28;20507;-57
2023/04/16 10:32:15;;;;;;;26.73;20.40;;;17.00;90.30;;;;;;5053011;28;20445;-57
2023/04/16 10:34:42;;;;;;;21.53;18.27;;;17.10;89.20;;;;;;5053045;28;20465;-57
2023/04/16 10:37:09;;;;;;;19.83;17.50;;;17.00;88.30;;;;;;5053166;28;20485;-57
2023/04/16 10:39:37;;;;;;;20.80;17.17;;;17.00;89.00;;;;;;5052701;28;20454;-56
2023/04/16 10:42:08;;;;;;;26.53;19.27;;;17.10;89.00;;;;;;5052706;28;20484;-57
2023/04/16 10:44:35;;;;;;;22.30;18.30;;;17.30;88.50;;;;;;5053026;28;20476;-57
2023/04/16 10:47:02;;;;;;;21.50;17.63;;;17.60;86.30;;;;;;5052833;28;20579;-57
2023/04/16 10:49:30;;;;;;;23.63;19.57;;;17.70;84.60;;;;;;5053086;28;20473;-57
2023/04/16 10:51:58;;;;;;;21.50;19.30;;;17.70;83.30;;;;;;5052515;28;20490;-57
2023/04/16 10:54:26;;;;;;;22.57;19.20;;;17.70;82.60;;;;;;5052763;28;20473;-57
2023/04/16 10:56:55;;;;;;;21.77;19.20;;;17.70;82.70;;;;;;5053015;28;20476;-56
2023/04/16 10:59:23;;;;;;;21.70;19.40;;;17.80;83.80;;;;;;5053088;28;20450;-57
2023/04/16 11:01:51;;;;;;;22.63;19.30;;;18.10;82.50;;;;;;5053021;28;20449;-57
2023/04/16 11:04:36;;;;;;;20.13;17.90;;;18.40;81.90;;;;;;5052630;28;20465;-56
2023/04/16 11:07:04;;;;;;;20.33;17.97;;;18.50;80.90;;;;;;5052885;28;20430;-57
2023/04/16 11:09:50;;;;;;;21.03;18.03;;;18.40;79.80;;;;;;5052829;28;20449;-57
2023/04/16 11:12:18;;;;;;;20.57;18.40;;;18.40;79.70;;;;;;5052821;28;20472;-57
2023/04/16 11:14:49;;;;;;;20.50;18.10;;;18.50;80.10;;;;;;5052377;28;20815;-57
2023/04/16 11:17:16;;;;;;;18.93;17.13;;;18.90;78.20;;;;;;5052783;28;20430;-57
2023/04/16 11:19:44;;;;;;;19.47;17.40;;;19.40;76.90;;;;;;5052703;28;20449;-57
2023/04/16 11:22:13;;;;;;;18.70;16.80;;;19.90;74.90;;;;;;5052762;28;20819;-57
2023/04/16 11:24:40;;;;;;;17.57;15.77;;;20.00;70.50;;;;;;5052577;28;20466;-57
2023/04/16 11:27:07;;;;;;;22.97;18.00;;;20.00;70.40;;;;;;5052736;28;20453;-57
2023/04/16 11:29:34;;;;;;;19.27;17.30;;;19.90;69.70;;;;;;5052681;28;20441;-57
2023/04/16 11:32:00;;;;;;;19.53;16.93;;;19.40;70.20;;;;;;5052463;28;20446;-56
2023/04/16 11:34:27;;;;;;;18.80;16.90;;;19.20;71.20;;;;;;5053231;28;20469;-57
2023/04/16 11:36:56;;;;;;;22.23;18.43;;;19.10;72.70;;;;;;5056176;28;20455;-57
2023/04/16 11:39:23;;;;;;;19.27;17.27;;;18.90;71.60;;;;;;5056029;28;20569;-57
2023/04/16 11:41:51;;;;;;;20.00;18.00;;;18.80;72.10;;;;;;5055713;28;20453;-57
2023/04/16 11:44:20;;;;;;;24.07;18.33;;;18.90;72.90;;;;;;5055760;28;20508;-56
2023/04/16 11:46:46;;;;;;;21.60;19.63;;;19.00;72.40;;;;;;5056154;28;20453;-57
2023/04/16 11:49:14;;;;;;;20.07;18.00;;;18.80;72.20;;;;;;5055963;28;20445;-57
2023/04/16 11:51:41;;;;;;;18.63;16.80;;;18.60;72.40;;;;;;5055907;28;20453;-57
2023/04/16 11:54:10;;;;;;;18.53;16.60;;;18.40;73.80;;;;;;5055574;28;20815;-56
2023/04/16 11:56:37;;;;;;;35.60;17.50;;;18.20;73.80;;;;;;5055865;28;20454;-57
2023/04/16 11:59:11;;;;;;;18.33;15.67;;;18.00;75.20;;;;;;5055768;28;20567;-57
2023/04/16 12:01:39;;;;;;;18.93;16.40;;;17.80;75.90;;;;;;5055813;28;20448;-57
2023/04/16 12:04:06;;;;;;;19.20;16.13;;;17.60;76.30;;;;;;5055890;28;20841;-57
2023/04/16 12:06:33;;;;;;;19.67;16.70;;;17.50;77.50;;;;;;5055772;28;20449;-57
2023/04/16 12:09:01;;;;;;;20.60;16.60;;;17.50;77.80;;;;;;5055486;28;20448;-56
2023/04/16 12:11:41;;;;;;;21.90;18.50;;;17.50;78.40;;;;;;5055295;28;21034;-56
2023/04/16 12:14:09;;;;;;;18.37;16.47;;;17.50;78.20;;;;;;5055533;28;20469;-57
2023/04/16 12:16:35;;;;;;;22.97;17.73;;;17.50;78.70;;;;;;5055337;28;20458;-57
2023/04/16 12:19:03;;;;;;;19.60;16.80;;;17.40;79.10;;;;;;5055318;28;20477;-57
2023/04/16 12:21:37;;;;;;;19.93;17.63;;;17.40;79.20;;;;;;5054958;28;20970;-57
2023/04/16 12:24:05;;;;;;;18.90;17.00;;;17.30;79.00;;;;;;5055244;28;20477;-57
2023/04/16 12:26:45;;;;;;;23.97;16.30;;;17.30;78.80;;;;;;5055285;28;20468;-57
2023/04/16 12:29:17;;;;;;;16.20;14.50;;;17.30;79.30;;;;;;5055196;28;20453;-56
2023/04/16 12:31:43;;;;;;;17.40;15.30;;;17.40;79.30;;;;;;5055159;28;20442;-57